Time;durP1;ratioP1;P1;durP2;ratioP2;P2;SDS_P1;SDS_P2;PMS_P1;PMS_P2;Temp;Humidity;BMP_temperature;BMP_pressure;BME280_temperature;BME280_humidity;BME280_pressure;Samples;Min_cycle;Max_cycle;Signal;HPM_P1;HPM_P2
2021/07/15 00:01:29;;;;;;;67.57;47.67;;;19.60;99.10;;;;;;5113741;28;20356;-69
2021/07/15 00:03:54;;;;;;;61.97;46.77;;;19.60;99.10;;;;;;5114026;28;20047;-69
2021/07/15 00:06:20;;;;;;;56.13;44.33;;;19.60;99.10;;;;;;5112922;28;20051;-68
2021/07/15 00:08:47;;;;;;;57.60;43.60;;;19.60;99.20;;;;;;5113570;28;20463;-68
2021/07/15 00:11:14;;;;;;;52.57;40.67;;;19.60;99.20;;;;;;5113680;28;20388;-68
2021/07/15 00:13:40;;;;;;;42.40;36.20;;;19.50;99.20;;;;;;5113235;28;20096;-69
2021/07/15 00:16:10;;;;;;;45.30;37.87;;;19.50;99.20;;;;;;5113883;28;20445;-68
2021/07/15 00:18:40;;;;;;;49.17;37.33;;;19.50;99.30;;;;;;5113196;28;20051;-68
2021/07/15 00:21:09;;;;;;;45.80;36.43;;;19.50;99.30;;;;;;5112724;28;20435;-69
2021/07/15 00:23:36;;;;;;;44.97;36.93;;;19.50;99.30;;;;;;5113746;28;20506;-68
2021/07/15 00:26:04;;;;;;;49.90;37.93;;;19.40;99.30;;;;;;5113568;28;20166;-67
2021/07/15 00:28:31;;;;;;;51.20;38.80;;;19.50;99.30;;;;;;5112272;28;20085;-68
2021/07/15 00:30:57;;;;;;;51.40;38.30;;;19.50;99.30;;;;;;5113672;28;20134;-67
2021/07/15 00:33:23;;;;;;;56.77;39.37;;;19.40;99.30;;;;;;5113547;28;20048;-68
2021/07/15 00:35:49;;;;;;;47.70;39.07;;;19.40;99.30;;;;;;5112559;28;20043;-68
2021/07/15 00:38:15;;;;;;;46.50;40.57;;;19.40;99.40;;;;;;5113340;28;20047;-68
2021/07/15 00:40:41;;;;;;;51.10;42.97;;;19.40;99.40;;;;;;5113607;28;20047;-67
2021/07/15 00:43:07;;;;;;;50.37;39.03;;;19.40;99.30;;;;;;5112744;28;20047;-67
2021/07/15 00:45:33;;;;;;;48.73;39.60;;;19.40;99.40;;;;;;5113033;28;20056;-68
2021/07/15 00:47:59;;;;;;;47.27;39.00;;;19.40;99.50;;;;;;5113095;28;20101;-67
2021/07/15 00:50:25;;;;;;;49.73;39.23;;;19.40;99.50;;;;;;5112048;28;20412;-68
2021/07/15 00:52:55;;;;;;;48.43;36.73;;;19.40;99.50;;;;;;5112920;28;20446;-68
2021/07/15 00:55:30;;;;;;;48.33;37.23;;;19.40;99.50;;;;;;5111848;28;20073;-68
2021/07/15 00:57:55;;;;;;;43.70;36.83;;;19.40;99.60;;;;;;5113022;28;20051;-68
2021/07/15 01:00:23;;;;;;;49.13;39.03;;;19.50;99.60;;;;;;5112813;28;20131;-68
2021/07/15 01:02:48;;;;;;;42.67;36.47;;;19.50;99.50;;;;;;5112165;28;20047;-68
2021/07/15 01:05:21;;;;;;;51.80;39.73;;;19.50;99.50;;;;;;5112498;28;20058;-67
2021/07/15 01:07:46;;;;;;;47.80;39.17;;;19.50;99.50;;;;;;5112654;28;20122;-68
2021/07/15 01:10:16;;;;;;;50.23;39.30;;;19.50;99.50;;;;;;5111666;28;20481;-68
2021/07/15 01:12:41;;;;;;;45.50;37.47;;;19.50;99.60;;;;;;5112562;28;20068;-68
2021/07/15 01:15:15;;;;;;;49.97;39.17;;;19.50;99.60;;;;;;5112351;28;20134;-67
2021/07/15 01:18:09;;;;;;;45.40;37.10;;;19.40;99.60;;;;;;5111724;28;20047;-68
2021/07/15 01:21:12;;;;;;;55.63;39.67;;;19.40;99.60;;;;;;5112911;28;20043;-67
2021/07/15 01:23:53;;;;;;;44.83;37.17;;;19.40;99.60;;;;;;5111703;28;20058;-68
2021/07/15 01:26:53;;;;;;;54.67;38.33;;;19.40;99.60;;;;;;5111930;28;20081;-68
2021/07/15 01:29:41;;;;;;;47.20;38.33;;;19.30;99.60;;;;;;5112274;28;20064;-68
2021/07/15 01:32:08;;;;;;;49.40;39.40;;;19.40;99.60;;;;;;5111729;28;20044;-68
2021/07/15 01:34:35;;;;;;;49.30;38.07;;;19.30;99.60;;;;;;5112500;28;20051;-68
2021/07/15 01:37:01;;;;;;;51.93;38.93;;;19.30;99.60;;;;;;5112851;28;20413;-68
2021/07/15 01:39:32;;;;;;;52.30;38.47;;;19.30;99.60;;;;;;5111273;28;20104;-68
2021/07/15 01:42:06;;;;;;;52.63;39.83;;;19.30;99.70;;;;;;5112363;28;20449;-67
2021/07/15 01:44:32;;;;;;;58.57;40.47;;;19.40;99.70;;;;;;5111601;28;20051;-67
2021/07/15 01:46:59;;;;;;;48.07;38.13;;;19.30;99.70;;;;;;5112014;28;20049;-68
2021/07/15 01:49:27;;;;;;;45.73;38.63;;;19.30;99.80;;;;;;5112360;28;20057;-67
2021/07/15 01:51:58;;;;;;;53.63;39.57;;;19.30;99.80;;;;;;5111601;28;20342;-68
2021/07/15 01:54:25;;;;;;;52.37;40.90;;;19.30;99.80;;;;;;5111481;28;20122;-67
2021/07/15 01:56:52;;;;;;;47.47;38.27;;;19.30;99.90;;;;;;5112254;28;20484;-68
2021/07/15 01:59:22;;;;;;;52.03;41.93;;;19.30;99.90;;;;;;5111432;28;20138;-67
2021/07/15 02:01:50;;;;;;;59.13;41.87;;;19.30;99.90;;;;;;5112166;28;20059;-67
2021/07/15 02:04:16;;;;;;;56.50;41.27;;;19.30;99.90;;;;;;5112958;28;20051;-67
2021/07/15 02:06:46;;;;;;;52.33;39.10;;;19.30;99.90;;;;;;5115379;28;20173;-68
2021/07/15 02:09:13;;;;;;;60.17;42.10;;;19.30;99.90;;;;;;5116277;28;20126;-68
2021/07/15 02:11:41;;;;;;;49.80;40.97;;;19.30;99.90;;;;;;5115907;28;20096;-67
2021/07/15 02:14:12;;;;;;;57.77;41.33;;;19.30;99.90;;;;;;5116047;28;20154;-68
2021/07/15 02:16:43;;;;;;;56.00;41.22;;;19.30;99.90;;;;;;5115881;28;20491;-67
2021/07/15 02:19:11;;;;;;;52.25;40.38;;;19.30;99.90;;;;;;5115732;28;20058;-68
2021/07/15 02:21:38;;;;;;;52.93;40.43;;;19.40;99.90;;;;;;5115033;28;20102;-68
2021/07/15 02:24:05;;;;;;;54.63;37.87;;;19.30;99.90;;;;;;5115311;28;20040;-68
2021/07/15 02:26:33;;;;;;;56.67;36.37;;;19.30;99.90;;;;;;5115625;28;20057;-68
2021/07/15 02:29:00;;;;;;;48.80;36.33;;;19.40;99.90;;;;;;5115178;27;20067;-68
2021/07/15 02:31:35;;;;;;;54.80;38.97;;;19.30;99.90;;;;;;5115709;28;20084;-68
2021/07/15 02:34:08;;;;;;;47.73;36.20;;;19.40;99.90;;;;;;5115422;28;20047;-68
2021/07/15 02:36:36;;;;;;;54.57;37.53;;;19.40;99.90;;;;;;5115905;28;20043;-67
2021/07/15 02:39:06;;;;;;;58.20;37.77;;;19.30;99.90;;;;;;5115795;28;20100;-68
2021/07/15 02:41:32;;;;;;;49.63;37.07;;;19.30;99.90;;;;;;5114666;28;20051;-68
2021/07/15 02:43:58;;;;;;;56.67;37.23;;;19.30;99.90;;;;;;5115713;28;20440;-67
2021/07/15 02:46:24;;;;;;;48.00;36.53;;;19.30;99.90;;;;;;5115347;28;20089;-67
2021/07/15 02:48:50;;;;;;;48.77;35.00;;;19.30;99.90;;;;;;5114850;28;20408;-67
2021/07/15 02:51:15;;;;;;;49.53;32.60;;;19.20;99.90;;;;;;5115213;28;20348;-68
2021/07/15 02:53:41;;;;;;;49.07;34.70;;;19.20;99.90;;;;;;5114959;28;20059;-67
2021/07/15 02:56:23;;;;;;;51.43;36.20;;;19.20;99.90;;;;;;5114726;28;20118;-68
2021/07/15 02:59:13;;;;;;;52.88;33.67;;;19.30;99.90;;;;;;5115178;28;20183;-67
2021/07/15 03:01:47;;;;;;;55.03;34.53;;;19.20;99.90;;;;;;5114744;28;20130;-68
2021/07/15 03:04:29;;;;;;;44.80;30.90;;;19.20;99.90;;;;;;5113901;28;20047;-68
2021/07/15 03:06:55;;;;;;;50.87;31.67;;;19.20;99.90;;;;;;5114932;28;20119;-67
2021/07/15 03:09:30;;;;;;;48.33;31.83;;;19.20;99.90;;;;;;5113775;27;20143;-67
2021/07/15 03:12:24;;;;;;;46.07;32.63;;;19.20;99.90;;;;;;5114641;28;20074;-67
2021/07/15 03:14:54;;;;;;;44.53;30.17;;;19.20;99.90;;;;;;5114587;28;20054;-68
2021/07/15 03:17:34;;;;;;;47.37;30.33;;;19.20;99.90;;;;;;5113665;28;20380;-68
2021/07/15 03:20:04;;;;;;;46.53;31.10;;;19.20;99.90;;;;;;5114342;28;20138;-67
2021/07/15 03:22:31;;;;;;;50.80;31.20;;;19.20;99.90;;;;;;5113997;28;20127;-68
2021/07/15 03:25:07;;;;;;;51.47;31.63;;;19.20;99.90;;;;;;5113699;28;20148;-67
2021/07/15 03:27:35;;;;;;;53.40;31.03;;;19.20;99.90;;;;;;5114045;28;20416;-67
2021/07/15 03:30:06;;;;;;;39.30;29.63;;;19.20;99.90;;;;;;5114149;28;20353;-67
2021/07/15 03:32:33;;;;;;;42.67;27.17;;;19.20;99.90;;;;;;5113957;28;20073;-67
2021/07/15 03:34:59;;;;;;;39.93;25.60;;;19.10;99.90;;;;;;5113967;28;20467;-68
2021/07/15 03:37:25;;;;;;;43.30;25.60;;;19.20;99.90;;;;;;5112884;28;20492;-67
2021/07/15 03:39:51;;;;;;;43.20;26.30;;;19.10;99.90;;;;;;5114118;28;20088;-67
2021/07/15 03:42:18;;;;;;;43.17;24.77;;;19.10;99.90;;;;;;5113796;28;20467;-67
2021/07/15 03:44:46;;;;;;;45.67;24.60;;;19.10;99.90;;;;;;5113074;28;20058;-67
2021/07/15 03:47:12;;;;;;;45.27;24.10;;;19.10;99.90;;;;;;5113711;28;20046;-67
2021/07/15 03:49:43;;;;;;;34.50;23.60;;;19.10;99.90;;;;;;5113708;28;20504;-67
2021/07/15 03:52:14;;;;;;;44.50;26.83;;;19.10;99.90;;;;;;5113213;28;20047;-68
2021/07/15 03:54:46;;;;;;;45.88;25.75;;;19.10;99.90;;;;;;5113828;28;20131;-68
2021/07/15 03:57:16;;;;;;;41.50;25.63;;;19.10;99.90;;;;;;5113320;28;20531;-67
2021/07/15 03:59:49;;;;;;;36.40;25.27;;;19.10;99.90;;;;;;5112994;28;20528;-67
2021/07/15 04:02:18;;;;;;;41.90;27.33;;;19.10;99.90;;;;;;5113180;28;20055;-67
2021/07/15 04:04:48;;;;;;;39.53;25.20;;;19.10;99.90;;;;;;5113094;28;20143;-67
2021/07/15 04:07:16;;;;;;;39.87;25.43;;;19.10;99.90;;;;;;5112496;28;20361;-67
2021/07/15 04:09:44;;;;;;;46.87;25.73;;;19.10;99.90;;;;;;5112974;28;20515;-67
2021/07/15 04:12:11;;;;;;;41.60;24.57;;;19.10;99.90;;;;;;5113209;28;20179;-69
2021/07/15 04:14:45;;;;;;;42.47;25.77;;;19.10;99.90;;;;;;5112182;28;20055;-67
2021/07/15 04:17:12;;;;;;;41.60;24.43;;;19.10;99.90;;;;;;5113101;28;20047;-67
2021/07/15 04:19:40;;;;;;;44.33;26.00;;;19.10;99.90;;;;;;5111927;28;20056;-67
2021/07/15 04:22:10;;;;;;;46.47;24.47;;;19.10;99.90;;;;;;5113258;28;20131;-67
2021/07/15 04:24:38;;;;;;;46.57;25.80;;;19.00;99.90;;;;;;5112734;28;20446;-67
2021/07/15 04:27:05;;;;;;;42.23;24.40;;;19.00;99.90;;;;;;5111470;28;20040;-67
2021/07/15 04:29:31;;;;;;;41.80;24.90;;;19.00;99.90;;;;;;5112268;28;20459;-67
2021/07/15 04:32:03;;;;;;;43.00;23.97;;;19.00;99.90;;;;;;5112990;28;20051;-67
2021/07/15 04:34:29;;;;;;;;;;;19.00;99.90;;;;;;5112084;28;20141;-67
2021/07/15 04:36:56;;;;;;;51.73;25.80;;;19.00;99.90;;;;;;5112750;28;19915;-68
2021/07/15 04:39:25;;;;;;;44.90;25.07;;;19.00;99.90;;;;;;5112222;28;20095;-67
2021/07/15 04:41:51;;;;;;;36.53;24.17;;;18.90;99.90;;;;;;5111899;28;20048;-67
2021/07/15 04:44:18;;;;;;;35.53;23.13;;;19.00;99.90;;;;;;5112043;28;20055;-67
2021/07/15 04:46:44;;;;;;;37.40;24.50;;;18.90;99.90;;;;;;5112681;28;20120;-67
2021/07/15 04:49:10;;;;;;;42.40;25.17;;;18.90;99.90;;;;;;5111209;28;20051;-68
2021/07/15 04:51:40;;;;;;;41.83;26.07;;;18.90;99.90;;;;;;5112514;28;20047;-69
2021/07/15 04:54:08;;;;;;;45.67;24.57;;;18.90;99.90;;;;;;5112109;27;20044;-67
2021/07/15 04:56:34;;;;;;;43.37;25.67;;;18.90;99.90;;;;;;5111714;28;20044;-67
2021/07/15 04:59:02;;;;;;;39.47;24.77;;;18.90;99.90;;;;;;5112213;28;20126;-67
2021/07/15 05:01:27;;;;;;;37.80;25.23;;;18.90;99.90;;;;;;5111907;28;20154;-67
2021/07/15 05:03:53;;;;;;;38.17;26.87;;;18.90;99.90;;;;;;5111534;28;20151;-67
2021/07/15 05:06:22;;;;;;;36.10;25.20;;;18.90;99.90;;;;;;5111853;28;20131;-67
2021/07/15 05:08:48;;;;;;;35.97;24.30;;;18.80;99.90;;;;;;5110942;28;20160;-67
2021/07/15 05:11:14;;;;;;;46.13;26.37;;;18.90;99.90;;;;;;5112069;28;20125;-67
2021/07/15 05:13:39;;;;;;;40.73;25.33;;;18.80;99.90;;;;;;5111988;28;20182;-67
2021/07/15 05:16:06;;;;;;;44.97;26.73;;;18.80;99.90;;;;;;5111285;28;20059;-67
2021/07/15 05:18:32;;;;;;;39.77;26.17;;;18.80;99.90;;;;;;5111643;28;20062;-68
2021/07/15 05:20:59;;;;;;;46.80;26.90;;;18.80;99.90;;;;;;5111990;28;20368;-67
2021/07/15 05:23:24;;;;;;;37.97;24.73;;;18.80;99.90;;;;;;5110842;28;20508;-67
2021/07/15 05:25:52;;;;;;;37.27;26.13;;;18.80;99.90;;;;;;5111887;28;20161;-67
2021/07/15 05:28:18;;;;;;;41.27;24.23;;;18.80;99.90;;;;;;5111372;28;20043;-67
2021/07/15 05:30:44;;;;;;;40.90;25.53;;;18.80;99.90;;;;;;5110527;28;20044;-68
2021/07/15 05:33:10;;;;;;;40.33;25.73;;;18.80;99.90;;;;;;5110589;28;20054;-67
2021/07/15 05:35:37;;;;;;;37.40;22.83;;;18.80;99.90;;;;;;5111154;28;20052;-67
2021/07/15 05:38:04;;;;;;;42.90;24.27;;;18.80;99.90;;;;;;5109989;28;20075;-68
2021/07/15 05:40:31;;;;;;;35.57;23.90;;;18.80;99.90;;;;;;5111294;28;20043;-67
2021/07/15 05:42:56;;;;;;;33.60;23.37;;;18.80;99.90;;;;;;5111756;28;20043;-68
2021/07/15 05:45:23;;;;;;;49.97;26.10;;;18.80;99.90;;;;;;5110570;28;20047;-67
2021/07/15 05:47:49;;;;;;;43.10;27.07;;;18.80;99.90;;;;;;5111826;28;20044;-66
2021/07/15 05:50:15;;;;;;;43.27;27.93;;;18.80;99.90;;;;;;5111236;28;20123;-66
2021/07/15 05:52:42;;;;;;;46.53;26.80;;;18.80;99.90;;;;;;5110791;28;20091;-67
2021/07/15 05:55:08;;;;;;;47.33;27.23;;;18.80;99.90;;;;;;5111789;28;20412;-67
2021/07/15 05:57:34;;;;;;;50.33;27.47;;;18.80;99.90;;;;;;5111699;28;20123;-67
2021/07/15 06:00:00;;;;;;;43.53;28.77;;;18.80;99.90;;;;;;5110797;28;20134;-67
2021/07/15 06:02:26;;;;;;;40.63;27.97;;;18.80;99.90;;;;;;5111474;28;20040;-67
2021/07/15 06:04:52;;;;;;;44.17;27.27;;;18.80;99.90;;;;;;5110967;28;20408;-67
2021/07/15 06:07:17;;;;;;;49.10;29.03;;;18.80;99.90;;;;;;5110630;28;20047;-67
2021/07/15 06:09:43;;;;;;;49.37;28.07;;;18.80;99.90;;;;;;5111287;28;20115;-67
2021/07/15 06:12:09;;;;;;;42.53;26.77;;;18.80;99.90;;;;;;5110284;28;20048;-68
2021/07/15 06:14:35;;;;;;;39.90;26.47;;;18.80;99.90;;;;;;5110449;28;20050;-68
2021/07/15 06:17:02;;;;;;;43.67;26.53;;;18.80;99.90;;;;;;5111039;28;20134;-67
2021/07/15 06:19:28;;;;;;;42.33;26.20;;;18.80;99.90;;;;;;5110226;28;20055;-67
2021/07/15 06:21:53;;;;;;;41.70;25.93;;;18.80;99.90;;;;;;5111685;28;20051;-68
2021/07/15 06:24:19;;;;;;;45.97;25.97;;;18.80;99.90;;;;;;5111090;28;20127;-67
2021/07/15 06:26:47;;;;;;;44.37;25.60;;;18.80;99.90;;;;;;5110730;28;20058;-67
2021/07/15 06:29:13;;;;;;;40.90;25.43;;;18.80;99.90;;;;;;5110982;28;20054;-68
2021/07/15 06:31:39;;;;;;;39.93;24.43;;;18.80;99.90;;;;;;5111130;28;20044;-68
2021/07/15 06:34:05;;;;;;;39.67;22.63;;;18.80;99.90;;;;;;5110170;28;20088;-68
2021/07/15 06:36:32;;;;;;;42.47;23.30;;;18.80;99.90;;;;;;5110984;28;20044;-68
2021/07/15 06:38:58;;;;;;;37.33;21.20;;;18.80;99.90;;;;;;5110906;28;20047;-68
2021/07/15 06:41:24;;;;;;;33.17;21.33;;;18.80;99.90;;;;;;5110075;28;20047;-68
2021/07/15 06:43:50;;;;;;;38.07;20.10;;;18.80;99.90;;;;;;5111088;28;20096;-68
2021/07/15 06:46:17;;;;;;;30.43;18.20;;;18.80;99.90;;;;;;5110805;28;20557;-68
2021/07/15 06:48:42;;;;;;;28.20;19.07;;;18.80;99.90;;;;;;5110539;28;20043;-67
2021/07/15 06:51:08;;;;;;;29.97;18.97;;;18.70;99.90;;;;;;5114061;28;20492;-68
2021/07/15 06:53:34;;;;;;;31.43;19.33;;;18.70;99.90;;;;;;5115382;28;20044;-68
2021/07/15 06:56:01;;;;;;;29.43;18.70;;;18.70;99.90;;;;;;5114296;28;20057;-67
2021/07/15 06:58:27;;;;;;;28.87;19.33;;;18.70;99.90;;;;;;5115001;28;20162;-68
2021/07/15 07:00:56;;;;;;;30.80;17.03;;;18.70;99.90;;;;;;5114859;28;20128;-68
2021/07/15 07:03:22;;;;;;;28.53;17.70;;;18.70;99.90;;;;;;5113721;28;20441;-69
2021/07/15 07:05:53;;;;;;;23.87;15.90;;;18.70;99.90;;;;;;5115062;28;20109;-68
2021/07/15 07:08:18;;;;;;;28.52;17.00;;;18.70;99.90;;;;;;5113642;28;20515;-68
2021/07/15 07:10:44;;;;;;;30.40;18.40;;;18.70;99.90;;;;;;5114824;28;20043;-68
2021/07/15 07:13:10;;;;;;;28.87;17.80;;;18.70;99.90;;;;;;5114573;28;20404;-68
2021/07/15 07:15:36;;;;;;;21.43;16.30;;;18.70;99.90;;;;;;5113835;28;20451;-68
2021/07/15 07:18:01;;;;;;;26.27;18.40;;;18.60;99.90;;;;;;5114523;28;20051;-68
2021/07/15 07:20:27;;;;;;;21.33;14.40;;;18.60;99.90;;;;;;5113906;28;20195;-67
2021/07/15 07:22:53;;;;;;;34.87;16.53;;;18.60;99.90;;;;;;5113789;28;20051;-68
2021/07/15 07:25:18;;;;;;;30.57;18.37;;;18.60;99.90;;;;;;5114388;28;20138;-69
2021/07/15 07:27:48;;;;;;;31.43;18.67;;;18.60;99.90;;;;;;5114564;28;20216;-69
2021/07/15 07:30:16;;;;;;;29.60;17.67;;;18.50;99.90;;;;;;5113536;28;20047;-69
2021/07/15 07:32:43;;;;;;;28.80;17.53;;;18.50;99.90;;;;;;5114350;28;20548;-68
2021/07/15 07:35:09;;;;;;;29.03;15.87;;;18.40;99.90;;;;;;5114016;28;20040;-68
2021/07/15 07:37:44;;;;;;;29.80;17.97;;;18.40;99.90;;;;;;5113783;28;20055;-71
2021/07/15 07:40:11;;;;;;;31.47;17.43;;;18.30;99.90;;;;;;5113715;28;20093;-68
2021/07/15 07:42:38;;;;;;;33.03;17.50;;;18.20;99.90;;;;;;5114045;28;20043;-68
2021/07/15 07:45:07;;;;;;;26.80;17.00;;;18.20;99.90;;;;;;5113175;28;20146;-67
2021/07/15 07:47:34;;;;;;;29.43;17.13;;;18.20;99.90;;;;;;5114042;28;20116;-68
2021/07/15 07:49:59;;;;;;;26.27;18.07;;;18.20;99.90;;;;;;5114093;28;20146;-67
2021/07/15 07:52:25;;;;;;;36.50;19.37;;;18.10;99.90;;;;;;5112955;28;20135;-68
2021/07/15 07:54:51;;;;;;;41.60;20.43;;;18.10;99.90;;;;;;5113977;28;20131;-68
2021/07/15 07:57:16;;;;;;;39.83;20.43;;;18.20;99.90;;;;;;5113545;28;20043;-68
2021/07/15 07:59:42;;;;;;;37.70;19.87;;;18.20;99.90;;;;;;5113150;28;20089;-68
2021/07/15 08:02:08;;;;;;;42.87;20.47;;;18.20;99.90;;;;;;5112955;28;20059;-68
2021/07/15 08:04:33;;;;;;;41.20;20.83;;;18.20;99.90;;;;;;5113009;28;20052;-69
2021/07/15 08:06:59;;;;;;;37.17;20.70;;;18.20;99.90;;;;;;5113724;28;20040;-68
2021/07/15 08:09:26;;;;;;;44.27;20.23;;;18.20;99.90;;;;;;5113058;28;20511;-67
2021/07/15 08:11:54;;;;;;;41.53;19.73;;;18.20;99.90;;;;;;5112291;28;20149;-68
2021/07/15 08:14:21;;;;;;;39.50;19.87;;;18.20;99.90;;;;;;5113141;28;20054;-69
2021/07/15 08:16:47;;;;;;;37.97;18.93;;;18.20;99.90;;;;;;5113098;28;20055;-68
2021/07/15 08:19:13;;;;;;;38.00;19.33;;;18.20;99.90;;;;;;5112362;28;20055;-68
2021/07/15 08:21:39;;;;;;;43.57;19.20;;;18.20;99.90;;;;;;5113399;28;20043;-68
2021/07/15 08:24:05;;;;;;;41.30;21.43;;;18.20;99.90;;;;;;5113197;28;20533;-68
2021/07/15 08:26:32;;;;;;;36.33;19.43;;;18.20;99.90;;;;;;5112167;28;20159;-68
2021/07/15 08:28:57;;;;;;;40.53;21.27;;;18.20;99.90;;;;;;5113362;28;20503;-68
2021/07/15 08:31:24;;;;;;;47.60;21.67;;;18.20;99.90;;;;;;5113032;28;20450;-68
2021/07/15 08:33:50;;;;;;;41.80;22.40;;;18.20;99.90;;;;;;5112141;28;20126;-68
2021/07/15 08:36:15;;;;;;;40.10;21.73;;;18.20;99.90;;;;;;5112787;28;20130;-68
2021/07/15 08:38:41;;;;;;;40.97;21.30;;;18.20;99.90;;;;;;5112270;28;20048;-68
2021/07/15 08:41:07;;;;;;;51.13;22.80;;;18.20;99.90;;;;;;5112310;28;20051;-68
2021/07/15 08:43:36;;;;;;;40.30;21.27;;;18.20;99.90;;;;;;5112942;28;20055;-68
2021/07/15 08:46:06;;;;;;;40.63;22.63;;;18.20;99.90;;;;;;5112439;28;20487;-69
2021/07/15 08:48:33;;;;;;;43.93;23.23;;;18.20;99.90;;;;;;5111715;28;20059;-69
2021/07/15 08:51:00;;;;;;;47.20;24.67;;;18.20;99.90;;;;;;5113025;28;20054;-68
2021/07/15 08:53:29;;;;;;;39.33;21.00;;;18.20;99.90;;;;;;5112462;28;20043;-68
2021/07/15 08:58:41;;;;;;;33.20;19.70;;;18.20;99.90;;;;;;5112257;28;20040;-68
2021/07/15 09:01:08;;;;;;;32.13;20.27;;;18.20;99.90;;;;;;5111594;28;20051;-68
2021/07/15 09:03:34;;;;;;;33.60;20.77;;;18.20;99.90;;;;;;5112639;28;20109;-69
2021/07/15 09:06:00;;;;;;;39.57;21.43;;;18.20;99.90;;;;;;5112428;28;20058;-69
2021/07/15 09:08:29;;;;;;;42.13;20.87;;;18.20;99.90;;;;;;5111742;28;20482;-68
2021/07/15 09:10:55;;;;;;;37.80;20.60;;;18.30;99.90;;;;;;5112369;28;20048;-69
2021/07/15 09:13:20;;;;;;;37.57;20.60;;;18.30;99.90;;;;;;5111831;28;20467;-68
2021/07/15 09:15:48;;;;;;;30.83;19.10;;;18.30;99.90;;;;;;5111521;28;20079;-67
2021/07/15 09:18:14;;;;;;;32.70;19.97;;;18.30;99.90;;;;;;5111716;28;20063;-68
2021/07/15 09:20:40;;;;;;;37.20;20.20;;;18.20;99.90;;;;;;5112186;28;20044;-68
2021/07/15 09:23:09;;;;;;;32.23;20.30;;;18.20;99.90;;;;;;5111587;28;20044;-68
2021/07/15 09:25:38;;;;;;;32.63;19.00;;;18.20;99.90;;;;;;5112510;28;20142;-68
2021/07/15 09:28:14;;;;;;;28.20;19.43;;;18.20;99.90;;;;;;5111657;28;20043;-68
2021/07/15 09:30:41;;;;;;;31.10;19.93;;;18.20;99.90;;;;;;5111482;28;20043;-68
2021/07/15 09:33:13;;;;;;;34.87;18.93;;;18.20;99.90;;;;;;5112097;28;20047;-68
2021/07/15 09:35:41;;;;;;;31.80;17.92;;;18.20;99.90;;;;;;5112469;28;20051;-68
2021/07/15 09:38:16;;;;;;;31.13;16.30;;;18.20;99.90;;;;;;5110928;28;20055;-68
2021/07/15 09:40:55;;;;;;;29.63;16.37;;;18.20;99.90;;;;;;5111065;28;20456;-68
2021/07/15 09:43:49;;;;;;;25.93;16.73;;;18.10;99.90;;;;;;5110321;28;20063;-68
2021/07/15 09:46:18;;;;;;;27.30;16.77;;;18.20;99.90;;;;;;5106688;28;20054;-67
2021/07/15 09:48:47;;;;;;;33.87;18.30;;;18.20;99.90;;;;;;5111930;28;20051;-67
2021/07/15 09:51:15;;;;;;;34.20;20.10;;;18.10;99.90;;;;;;5110651;28;20111;-68
2021/07/15 09:53:41;;;;;;;38.00;20.57;;;18.20;99.90;;;;;;5110964;28;20048;-68
2021/07/15 09:56:11;;;;;;;34.90;19.17;;;18.20;99.90;;;;;;5111656;28;20050;-69
2021/07/15 09:58:45;;;;;;;26.57;15.80;;;18.20;99.90;;;;;;5110991;28;20051;-68
2021/07/15 10:01:22;;;;;;;35.33;17.87;;;18.20;99.90;;;;;;5111507;28;20123;-69
2021/07/15 10:03:53;;;;;;;37.80;17.13;;;18.20;99.90;;;;;;5110729;28;20134;-68
2021/07/15 10:06:19;;;;;;;35.35;19.30;;;18.20;99.90;;;;;;5110478;28;20095;-67
2021/07/15 10:08:46;;;;;;;35.37;17.33;;;18.20;99.90;;;;;;5111340;28;20048;-67
2021/07/15 10:11:22;;;;;;;37.17;17.33;;;18.20;99.90;;;;;;5110446;28;20048;-68
2021/07/15 10:14:01;;;;;;;32.57;16.57;;;18.30;99.90;;;;;;5111340;28;20051;-67
2021/07/15 10:16:32;;;;;;;31.77;16.13;;;18.30;99.90;;;;;;5111177;28;20184;-68
2021/07/15 10:18:58;;;;;;;33.47;17.20;;;18.30;99.90;;;;;;5110276;28;20128;-68
2021/07/15 10:21:26;;;;;;;25.40;15.77;;;18.30;99.90;;;;;;5111052;28;20090;-66
2021/07/15 10:23:52;;;;;;;27.20;14.43;;;18.30;99.90;;;;;;5111031;28;20048;-67
2021/07/15 10:26:18;;;;;;;30.60;16.50;;;18.40;99.90;;;;;;5113434;28;20054;-67
2021/07/15 10:28:46;;;;;;;30.63;17.80;;;18.40;99.90;;;;;;5115483;28;20044;-68
2021/07/15 10:31:13;;;;;;;29.10;15.80;;;18.40;99.90;;;;;;5114846;28;20552;-69
2021/07/15 10:33:42;;;;;;;27.10;15.10;;;18.50;99.90;;;;;;5114253;28;20128;-69
2021/07/15 10:36:09;;;;;;;31.97;16.13;;;18.60;99.90;;;;;;5114848;28;20039;-68
2021/07/15 10:38:43;;;;;;;33.13;15.50;;;18.70;99.90;;;;;;5114821;28;20140;-68
2021/07/15 10:41:10;;;;;;;24.40;14.53;;;18.70;99.90;;;;;;5113884;28;20441;-69
2021/07/15 10:43:37;;;;;;;27.23;15.60;;;18.70;99.90;;;;;;5114609;27;20054;-68
2021/07/15 10:46:06;;;;;;;25.80;15.33;;;18.80;99.80;;;;;;5114589;28;20134;-68
2021/07/15 10:48:34;;;;;;;32.63;15.40;;;18.90;99.70;;;;;;5113864;28;20044;-68
2021/07/15 10:51:01;;;;;;;27.77;15.13;;;18.80;99.40;;;;;;5114600;28;20493;-68
2021/07/15 10:53:34;;;;;;;29.17;16.20;;;18.80;99.30;;;;;;5113512;28;20051;-68
2021/07/15 10:56:01;;;;;;;25.13;13.40;;;18.80;99.30;;;;;;5114841;28;20052;-68
2021/07/15 10:58:48;;;;;;;27.50;14.97;;;18.70;99.20;;;;;;5114055;28;20476;-68
2021/07/15 11:01:40;;;;;;;24.93;14.27;;;18.70;99.00;;;;;;5113689;28;20408;-68
2021/07/15 11:04:08;;;;;;;29.43;14.43;;;18.70;99.00;;;;;;5114367;28;20070;-67
2021/07/15 11:06:41;;;;;;;31.40;15.07;;;18.70;99.00;;;;;;5114092;28;20530;-68
2021/07/15 11:09:10;;;;;;;28.37;15.33;;;18.70;98.90;;;;;;5113412;28;20369;-68
2021/07/15 11:11:39;;;;;;;33.13;18.10;;;18.70;99.00;;;;;;5114631;28;20103;-67
2021/07/15 11:14:06;;;;;;;25.10;14.13;;;18.70;99.10;;;;;;5114329;28;20116;-68
2021/07/15 11:16:52;;;;;;;29.73;15.23;;;18.70;99.00;;;;;;5112905;28;20043;-67
2021/07/15 11:19:55;;;;;;;27.10;12.83;;;18.80;98.80;;;;;;5113172;28;20522;-68
2021/07/15 11:22:46;;;;;;;22.43;12.50;;;18.80;98.60;;;;;;5112993;28;20133;-67
2021/07/15 11:25:17;;;;;;;25.33;12.97;;;18.90;98.30;;;;;;5106076;28;20047;-68
2021/07/15 11:27:53;;;;;;;26.88;12.63;;;18.80;98.30;;;;;;5113713;28;20039;-67
2021/07/15 11:30:27;;;;;;;23.90;12.83;;;18.90;98.30;;;;;;5113087;28;20050;-66
2021/07/15 11:32:54;;;;;;;27.17;14.20;;;18.90;98.10;;;;;;5113988;28;20446;-67
2021/07/15 11:35:31;;;;;;;22.87;12.83;;;18.90;98.10;;;;;;5113113;28;20138;-67
2021/07/15 11:38:09;;;;;;;22.30;12.40;;;18.90;98.00;;;;;;5113593;28;20048;-67
2021/07/15 11:40:35;;;;;;;24.77;12.77;;;18.80;97.90;;;;;;5113803;28;20052;-67
2021/07/15 11:43:52;;;;;;;25.50;12.77;;;18.80;97.80;;;;;;5113040;28;20109;-67
2021/07/15 11:46:22;;;;;;;19.37;12.20;;;18.80;97.70;;;;;;5050147;28;20067;-67
2021/07/15 11:49:10;;;;;;;27.10;14.27;;;18.80;97.70;;;;;;5109361;28;20204;-67
2021/07/15 11:51:51;;;;;;;28.90;13.80;;;18.80;97.70;;;;;;5112957;28;20070;-66
2021/07/15 11:54:24;;;;;;;27.03;13.37;;;18.80;97.70;;;;;;5113234;28;20044;-67
2021/07/15 11:56:52;;;;;;;27.50;13.80;;;18.70;97.70;;;;;;5112354;28;20069;-68
2021/07/15 11:59:36;;;;;;;26.63;14.13;;;18.70;97.60;;;;;;5113063;28;20142;-67
2021/07/15 12:02:24;;;;;;;25.93;13.20;;;18.70;98.00;;;;;;5111693;28;20486;-67
2021/07/15 12:05:27;;;;;;;25.87;13.60;;;18.70;97.70;;;;;;5104974;28;20043;-68
2021/07/15 12:08:15;;;;;;;27.80;14.60;;;18.60;97.70;;;;;;5109311;28;20073;-68
2021/07/15 12:10:46;;;;;;;26.30;14.63;;;18.60;97.90;;;;;;5109052;28;20069;-69
2021/07/15 12:13:13;;;;;;;;;;;18.50;98.00;;;;;;5109797;28;20047;-68
2021/07/15 12:15:43;;;;;;;21.60;15.00;;;18.50;98.00;;;;;;5108791;27;19997;-68
2021/07/15 12:18:13;;;;;;;27.63;15.33;;;18.50;98.20;;;;;;5108644;27;20142;-68
2021/07/15 12:20:53;;;;;;;30.07;15.60;;;18.50;98.20;;;;;;5109734;28;20051;-69
2021/07/15 12:23:21;;;;;;;29.20;16.10;;;18.50;98.10;;;;;;5109099;28;20365;-68
2021/07/15 12:25:51;;;;;;;33.60;16.23;;;18.40;98.10;;;;;;5109005;28;20051;-70
2021/07/15 12:28:19;;;;;;;31.40;15.37;;;18.50;98.20;;;;;;5109217;28;20519;-69
2021/07/15 12:30:53;;;;;;;24.33;15.87;;;18.50;98.20;;;;;;5109538;28;20511;-68
2021/07/15 12:33:21;;;;;;;25.93;15.57;;;18.50;98.30;;;;;;5108855;28;20242;-70
2021/07/15 12:35:49;;;;;;;31.00;16.03;;;18.50;98.20;;;;;;5109666;28;20059;-69
2021/07/15 12:38:26;;;;;;;25.83;14.97;;;18.60;98.20;;;;;;5109073;28;20101;-69
2021/07/15 12:41:15;;;;;;;23.10;15.40;;;18.60;98.00;;;;;;5108496;28;20039;-70
2021/07/15 12:43:45;;;;;;;23.67;13.87;;;18.60;97.90;;;;;;5109128;28;20481;-69